createdAt,value
2022-11-04T06:58:10.623Z,55
2022-11-04T06:58:58.391Z,55
2022-11-04T06:59:57.590Z,55
2022-11-04T07:00:58.570Z,55
2022-11-04T07:01:58.671Z,55
2022-11-04T07:02:58.059Z,55
2022-11-04T07:03:57.563Z,60
2022-11-04T07:04:59.894Z,60
2022-11-04T07:05:57.713Z,60
2022-11-04T07:06:57.875Z,60
2022-11-04T07:07:58.255Z,60
2022-11-04T07:08:57.686Z,60
2022-11-04T07:09:57.614Z,60
2022-11-04T07:10:58.075Z,60
2022-11-04T07:11:57.691Z,60
2022-11-04T07:12:57.662Z,55
2022-11-04T07:13:58.540Z,55
2022-11-04T07:14:58.354Z,55
2022-11-04T07:15:57.995Z,50
2022-11-04T07:16:57.785Z,50
2022-11-04T07:17:58.435Z,45
2022-11-04T07:18:57.895Z,45
2022-11-04T07:19:58.785Z,45
2022-11-04T07:20:59.121Z,40
2022-11-04T07:21:57.922Z,40
2022-11-04T07:22:57.766Z,40
2022-11-04T07:23:57.922Z,35
2022-11-04T07:24:58.045Z,35
2022-11-04T07:25:58.730Z,30
2022-11-04T07:26:58.432Z,30
2022-11-04T07:28:04.640Z,30
2022-11-04T07:28:58.373Z,30
2022-11-04T07:29:58.454Z,30
2022-11-04T07:30:58.679Z,30
2022-11-04T07:31:58.404Z,30
2022-11-04T07:32:57.882Z,35
2022-11-04T07:33:58.482Z,35
2022-11-04T07:35:29.924Z,40
2022-11-04T07:36:05.400Z,40
2022-11-04T07:36:58.205Z,45
2022-11-04T07:37:58.105Z,45
2022-11-04T07:38:58.104Z,45
2022-11-04T07:39:57.981Z,45
2022-11-04T07:40:57.984Z,45
2022-11-04T07:42:05.616Z,45
2022-11-04T07:42:58.106Z,45
2022-11-04T07:43:58.036Z,40
2022-11-04T07:44:58.077Z,40
2022-11-04T07:45:58.691Z,35
2022-11-04T07:46:58.662Z,35
2022-11-04T07:47:58.140Z,35
2022-11-04T07:48:58.547Z,35
2022-11-04T07:49:58.725Z,35
2022-11-04T07:50:58.692Z,40
2022-11-04T07:51:58.108Z,40
2022-11-04T07:52:58.109Z,45
2022-11-04T07:53:59.002Z,45
2022-11-04T07:54:58.126Z,45
2022-11-04T07:55:59.538Z,45
2022-11-04T07:56:58.468Z,45
2022-11-04T07:57:59.892Z,45
2022-11-04T07:58:58.271Z,45
2022-11-04T07:59:58.389Z,45
2022-11-04T08:00:58.465Z,50
2022-11-04T08:02:00.743Z,55
2022-11-04T08:02:59.297Z,55
2022-11-04T08:03:58.971Z,55
2022-11-04T08:04:58.495Z,60
2022-11-04T08:05:58.528Z,55
2022-11-04T08:06:58.606Z,55
2022-11-04T08:07:58.871Z,50
2022-11-04T08:08:59.119Z,50
2022-11-04T08:09:58.706Z,45
2022-11-04T08:10:59.455Z,45
2022-11-04T08:11:58.738Z,45
2022-11-04T08:12:58.344Z,50
2022-11-04T08:13:58.457Z,50
2022-11-04T08:14:58.372Z,55
2022-11-04T08:15:59.123Z,65
2022-11-04T08:16:59.207Z,70
2022-11-04T08:18:00.091Z,70
2022-11-04T08:18:59.084Z,70
2022-11-04T08:19:58.432Z,65
2022-11-04T08:21:58.432Z,55
2022-11-04T08:22:58.507Z,50
2022-11-04T08:23:58.722Z,45
2022-11-04T08:24:58.764Z,45
2022-11-04T08:25:59.071Z,40
2022-11-04T08:26:59.388Z,40
2022-11-04T08:28:07.303Z,40
2022-11-04T08:28:59.612Z,45
2022-11-04T08:29:59.608Z,45
2022-11-04T08:31:00.164Z,50
2022-11-04T08:31:58.966Z,50
2022-11-04T08:32:58.747Z,55
2022-11-04T08:34:00.675Z,60
2022-11-04T08:34:59.487Z,60
2022-11-04T08:35:58.839Z,60
2022-11-04T08:36:59.363Z,60
2022-11-04T08:38:00.017Z,60
2022-11-04T08:39:03.341Z,60
2022-11-04T08:39:59.848Z,65
2022-11-04T08:41:06.705Z,65
2022-11-04T08:42:01.987Z,70
2022-11-04T08:42:58.788Z,80
2022-11-04T08:43:58.906Z,80
2022-11-04T08:44:59.046Z,85
2022-11-04T08:45:59.051Z,80
2022-11-04T08:46:59.008Z,80
2022-11-04T13:54:25.531Z,90
2022-11-04T13:55:11.721Z,90
2022-11-04T13:56:42.601Z,95
2022-11-04T13:57:12.603Z,95
2022-11-04T13:58:12.982Z,95
2022-11-04T13:59:12.153Z,95
2022-11-04T14:00:11.244Z,95
2022-11-04T14:01:11.287Z,95
2022-11-04T14:02:12.650Z,95
2022-11-04T14:03:12.721Z,95
2022-11-04T14:04:11.679Z,95
2022-11-04T14:05:11.234Z,90
2022-11-04T14:06:11.150Z,90
2022-11-04T14:07:11.183Z,85
2022-11-04T14:08:11.279Z,85
2022-11-04T14:09:10.791Z,80
2022-11-04T14:10:12.341Z,80
2022-11-04T14:11:11.777Z,80
2022-11-04T14:12:10.968Z,75
2022-11-04T14:13:12.211Z,75
2022-11-04T14:14:11.449Z,75
2022-11-04T14:15:10.970Z,70
2022-11-04T14:16:11.141Z,70
2022-11-04T14:17:11.014Z,70
2022-11-04T14:18:17.379Z,70
2022-11-04T14:19:10.758Z,65
2022-11-04T14:20:12.247Z,65
2022-11-04T14:21:11.195Z,65
2022-11-04T14:22:11.301Z,60
2022-11-04T14:23:12.667Z,60
2022-11-04T14:24:19.116Z,60
2022-11-04T14:25:11.805Z,60
2022-11-04T14:26:12.307Z,60
2022-11-04T14:27:11.963Z,60
2022-11-04T14:28:11.497Z,60
2022-11-04T14:29:11.510Z,60
2022-11-04T14:30:11.946Z,60
2022-11-04T14:31:43.231Z,60
2022-11-04T14:32:11.029Z,55
2022-11-04T14:33:12.351Z,55
2022-11-04T14:34:11.480Z,55
2022-11-04T14:35:11.252Z,55
2022-11-04T14:36:11.546Z,50
2022-11-04T14:37:11.494Z,50
2022-11-04T14:38:11.832Z,50
2022-11-04T14:39:11.847Z,45
2022-11-04T14:40:12.351Z,45
2022-11-04T14:41:11.720Z,45
2022-11-04T14:42:11.653Z,40
2022-11-04T14:43:12.984Z,40
2022-11-04T14:44:11.269Z,40
2022-11-04T14:45:11.292Z,40
2022-11-04T14:46:11.355Z,40
2022-11-04T14:47:11.499Z,40
